Terminal Aerodrome Forecast
Issued by NWS Shreveport, LA

Home | Current Version | Previous Version | Text Only | Print | Product List | Glossary On
Versions: 1 2 3 4 5 6 7 8 9 10 11 12 13 14 15 16
000
FTUS44 KSHV 171741
TAFTXK
TAF
KTXK 171741Z 1718/1818 23007KT P6SM SCT100
     FM180000 VRB03KT P6SM BKN250
      TEMPO 1809/1813 2SM BR
     FM181500 22006KT P6SM SCT040=

USA.gov is the U.S. government's official web portal to all federal, state and local government web resources and services.